Time;durP1;ratioP1;P1;durP2;ratioP2;P2;SDS_P1;SDS_P2;PMS_P1;PMS_P2;Temp;Humidity;BMP_temperature;BMP_pressure;BME280_temperature;BME280_humidity;BME280_pressure;Samples;Min_cycle;Max_cycle;Signal;HPM_P1;HPM_P2
2023/04/04 04:05:49;;;;;;;1.65;1.55;;;-0.50;99.90;;;;;;5148328;23;20235;-64
2023/04/04 04:08:15;;;;;;;3.10;2.90;;;-0.50;99.90;;;;;;4956215;28;20176;-64
2023/04/04 04:10:40;;;;;;;3.20;2.03;;;-0.40;99.90;;;;;;4955940;28;20539;-61
2023/04/04 04:13:06;;;;;;;1.73;1.60;;;-0.40;99.90;;;;;;4955633;28;20412;-63
2023/04/04 04:15:32;;;;;;;2.10;2.00;;;-0.40;99.90;;;;;;4954614;28;20346;-62
2023/04/04 04:17:57;;;;;;;2.10;1.60;;;-0.30;99.90;;;;;;4955767;28;20171;-63
2023/04/04 04:20:23;;;;;;;1.83;1.73;;;-0.40;99.90;;;;;;4955161;28;20168;-63
2023/04/04 04:22:48;;;;;;;3.20;1.97;;;-0.40;99.90;;;;;;4955553;28;20232;-63
2023/04/04 04:25:15;;;;;;;1.83;1.67;;;-0.40;99.90;;;;;;4955626;28;20542;-62
2023/04/04 04:27:40;;;;;;;1.67;1.58;;;-0.40;99.90;;;;;;4955803;28;20187;-63
2023/04/04 04:30:07;;;;;;;2.00;1.90;;;-0.40;99.90;;;;;;4955780;28;20169;-62
2023/04/04 04:32:33;;;;;;;3.80;2.30;;;-0.40;99.90;;;;;;4955756;28;20183;-62
2023/04/04 04:34:59;;;;;;;1.90;1.80;;;-0.40;99.90;;;;;;4953973;28;20259;-64
2023/04/04 04:37:25;;;;;;;3.37;2.23;;;-0.40;99.90;;;;;;4955585;28;20822;-64
2023/04/04 04:39:51;;;;;;;2.40;2.20;;;-0.40;99.90;;;;;;4954314;28;20680;-63
2023/04/04 04:42:17;;;;;;;1.67;1.58;;;-0.40;99.90;;;;;;4955426;28;20221;-63
2023/04/04 04:44:42;;;;;;;2.30;2.20;;;-0.40;99.90;;;;;;4954609;28;20193;-63
2023/04/04 04:47:08;;;;;;;3.23;2.30;;;-0.40;99.90;;;;;;4955390;28;20444;-61
2023/04/04 04:49:34;;;;;;;1.63;1.53;;;-0.50;99.90;;;;;;4954209;28;20185;-62
2023/04/04 04:52:00;;;;;;;2.40;2.30;;;-0.50;99.90;;;;;;4955165;28;20630;-62
2023/04/04 04:54:25;;;;;;;1.60;1.50;;;-0.50;99.90;;;;;;4949539;28;20522;-64
2023/04/04 04:56:51;;;;;;;2.13;2.00;;;-0.50;99.90;;;;;;4954650;28;20433;-61
2023/04/04 04:59:16;;;;;;;2.03;1.87;;;-0.50;99.90;;;;;;4955195;28;20321;-63
2023/04/04 05:01:42;;;;;;;2.67;2.47;;;-0.50;99.90;;;;;;4955088;28;20198;-61
2023/04/04 05:04:07;;;;;;;1.97;1.87;;;-0.50;99.90;;;;;;4954370;28;20190;-63
2023/04/04 05:06:33;;;;;;;4.10;2.67;;;-0.50;99.90;;;;;;4954834;28;20196;-62
2023/04/04 05:08:59;;;;;;;2.40;2.30;;;-0.50;99.90;;;;;;4954715;28;20190;-60
2023/04/04 05:11:25;;;;;;;2.13;1.98;;;-0.50;99.90;;;;;;4955207;28;20177;-63
2023/04/04 05:13:50;;;;;;;3.37;2.87;;;-0.30;99.90;;;;;;4949957;28;20243;-62
2023/04/04 05:16:16;;;;;;;4.50;4.10;;;-0.10;99.90;;;;;;4954930;28;20286;-60
2023/04/04 05:18:42;;;;;;;3.27;3.07;;;0.30;99.90;;;;;;4946832;28;20169;-60
2023/04/04 05:21:08;;;;;;;1.90;1.80;;;0.50;99.90;;;;;;4935913;29;20422;-63
2023/04/04 05:23:33;;;;;;;2.50;2.30;;;0.90;99.90;;;;;;4935512;29;20189;-60
2023/04/04 05:25:59;;;;;;;2.63;2.43;;;1.20;99.90;;;;;;4935807;29;20808;-63
2023/04/04 05:28:24;;;;;;;2.17;2.07;;;1.60;99.90;;;;;;4936275;29;20185;-61
2023/04/04 05:30:51;;;;;;;2.57;2.47;;;1.80;99.90;;;;;;4943449;28;20177;-62
2023/04/04 05:33:17;;;;;;;2.45;2.35;;;2.10;99.90;;;;;;4954409;28;20219;-63
2023/04/04 05:35:42;;;;;;;1.80;1.70;;;2.30;99.90;;;;;;4939358;29;20643;-63
2023/04/04 05:38:08;;;;;;;2.20;2.00;;;2.50;99.40;;;;;;4939189;29;20676;-63
2023/04/04 05:40:34;;;;;;;4.03;3.40;;;2.60;98.20;;;;;;4958490;28;20165;-63
2023/04/04 05:43:03;;;;;;;2.30;2.10;;;2.60;97.70;;;;;;4957559;28;20759;-65
2023/04/04 05:45:29;;;;;;;1.98;1.88;;;2.70;97.80;;;;;;4957535;28;20292;-62
2023/04/04 05:47:55;;;;;;;2.60;2.40;;;2.90;97.70;;;;;;4957181;28;20188;-64
2023/04/04 05:50:20;;;;;;;4.17;2.63;;;3.10;96.70;;;;;;4939184;29;20177;-64
2023/04/04 05:52:46;;;;;;;2.50;2.30;;;3.10;96.40;;;;;;4942153;29;20177;-63
2023/04/04 05:55:12;;;;;;;2.27;1.90;;;3.20;95.70;;;;;;4938646;29;20209;-61
2023/04/04 05:57:37;;;;;;;3.27;2.90;;;3.20;95.30;;;;;;4938914;29;20185;-64
2023/04/04 06:00:08;;;;;;;2.93;2.60;;;3.30;95.40;;;;;;4939079;29;20508;-61
2023/04/04 06:02:33;;;;;;;2.40;2.20;;;3.20;95.70;;;;;;4945826;29;20255;-64
2023/04/04 06:04:59;;;;;;;3.03;2.20;;;3.20;95.10;;;;;;4957379;28;20738;-62
2023/04/04 06:07:25;;;;;;;2.40;2.20;;;3.30;95.30;;;;;;4956970;28;20575;-63
2023/04/04 06:09:50;;;;;;;1.90;1.80;;;3.40;95.40;;;;;;4957655;28;20203;-64
2023/04/04 06:12:16;;;;;;;3.17;2.93;;;3.60;95.40;;;;;;4957675;28;20179;-63
2023/04/04 06:14:41;;;;;;;2.50;2.30;;;4.00;95.20;;;;;;4956512;28;20205;-64
2023/04/04 06:17:07;;;;;;;2.40;2.20;;;4.40;93.90;;;;;;4957970;28;20662;-64
2023/04/04 06:19:33;;;;;;;2.03;1.50;;;4.70;93.20;;;;;;4957870;28;20275;-64
2023/04/04 06:21:58;;;;;;;2.57;2.33;;;5.20;93.00;;;;;;4957709;28;20465;-62
2023/04/04 06:24:24;;;;;;;2.40;2.30;;;5.80;91.90;;;;;;4958660;28;20207;-64
2023/04/04 06:26:50;;;;;;;2.57;2.40;;;6.20;90.60;;;;;;4958722;28;20650;-62
2023/04/04 06:29:19;;;;;;;2.25;2.15;;;6.20;90.30;;;;;;4958231;28;20758;-63
2023/04/04 06:31:44;;;;;;;3.00;2.67;;;6.10;89.70;;;;;;4958237;28;20169;-61
2023/04/04 06:34:10;;;;;;;1.93;1.77;;;6.20;90.50;;;;;;4957509;28;20189;-64
2023/04/04 06:36:36;;;;;;;2.10;2.00;;;6.50;88.30;;;;;;4958022;28;20295;-66
2023/04/04 06:39:01;;;;;;;2.40;1.93;;;6.70;87.60;;;;;;4958084;28;20168;-65
2023/04/04 06:41:27;;;;;;;1.50;1.47;;;6.90;86.00;;;;;;4957999;28;20632;-63
2023/04/04 06:43:52;;;;;;;1.67;1.60;;;6.90;86.20;;;;;;4956701;28;20173;-63
2023/04/04 06:46:18;;;;;;;2.10;2.00;;;7.10;86.10;;;;;;4957763;28;20231;-62
2023/04/04 06:48:44;;;;;;;1.70;1.70;;;7.30;84.90;;;;;;4957756;28;20259;-62
2023/04/04 06:51:10;;;;;;;2.87;2.67;;;7.40;84.20;;;;;;4956121;28;20172;-65
2023/04/04 06:53:36;;;;;;;1.55;1.45;;;7.60;82.70;;;;;;4957183;28;20171;-65
2023/04/04 06:56:03;;;;;;;2.58;2.45;;;7.80;81.60;;;;;;4957338;28;20205;-65
2023/04/04 06:58:29;;;;;;;2.00;1.90;;;7.90;81.50;;;;;;4957531;28;20575;-63
2023/04/04 07:00:55;;;;;;;1.90;1.80;;;8.20;81.50;;;;;;4957500;28;20654;-62
2023/04/04 07:03:22;;;;;;;2.83;2.63;;;8.50;79.30;;;;;;4957087;28;20699;-63
2023/04/04 07:05:48;;;;;;;2.33;2.22;;;8.70;78.80;;;;;;4957119;28;20248;-62
2023/04/04 07:08:14;;;;;;;2.10;2.00;;;9.00;77.30;;;;;;4957052;28;20209;-65
2023/04/04 07:10:40;;;;;;;2.80;2.60;;;9.30;77.10;;;;;;4957121;28;20182;-63
2023/04/04 07:13:05;;;;;;;5.23;3.60;;;9.40;76.40;;;;;;4956891;28;20273;-64
2023/04/04 07:15:31;;;;;;;2.33;2.13;;;9.50;75.50;;;;;;4957111;28;20205;-63
2023/04/04 07:17:56;;;;;;;3.57;2.77;;;9.50;75.50;;;;;;4957109;28;20175;-64
2023/04/04 07:20:22;;;;;;;1.90;1.80;;;9.40;75.00;;;;;;4956873;28;20164;-62
2023/04/04 07:22:48;;;;;;;2.53;2.13;;;9.50;75.30;;;;;;4956899;28;20176;-65
2023/04/04 07:25:14;;;;;;;2.13;1.93;;;9.50;72.60;;;;;;4956820;28;20193;-62
2023/04/04 07:27:39;;;;;;;2.50;1.98;;;9.40;71.80;;;;;;4957010;28;20173;-65
2023/04/04 07:30:07;;;;;;;4.10;1.97;;;9.10;71.50;;;;;;4956843;28;20233;-62
2023/04/04 07:32:32;;;;;;;1.85;1.75;;;8.90;71.80;;;;;;4955410;29;20180;-62
2023/04/04 07:34:58;;;;;;;1.87;1.77;;;8.80;72.30;;;;;;4956249;28;20227;-63
2023/04/04 07:37:25;;;;;;;2.53;1.90;;;8.70;73.10;;;;;;4956687;28;20400;-65
2023/04/04 07:39:51;;;;;;;1.75;1.65;;;8.60;72.80;;;;;;4956491;28;20173;-64
2023/04/04 07:42:22;;;;;;;1.53;1.47;;;8.70;73.70;;;;;;4956741;28;20187;-64
2023/04/04 07:44:56;;;;;;;3.20;1.60;;;8.90;73.10;;;;;;4956131;28;20425;-66
2023/04/04 07:47:22;;;;;;;1.80;1.70;;;9.20;72.20;;;;;;4955490;29;20189;-64
2023/04/04 07:49:47;;;;;;;2.20;1.67;;;9.50;71.90;;;;;;4956687;28;20411;-64
2023/04/04 07:52:13;;;;;;;1.70;1.60;;;10.00;69.40;;;;;;4956380;28;20238;-63
2023/04/04 07:54:41;;;;;;;3.60;2.30;;;10.30;67.70;;;;;;4955207;28;20723;-63
2023/04/04 07:57:08;;;;;;;2.50;2.23;;;10.80;67.30;;;;;;4956399;28;20646;-66
2023/04/04 07:59:35;;;;;;;1.90;1.80;;;11.40;66.40;;;;;;4956268;28;20400;-66
2023/04/04 08:02:00;;;;;;;2.03;1.93;;;12.30;64.80;;;;;;4956150;28;20908;-64
2023/04/04 08:04:26;;;;;;;2.37;2.27;;;12.80;60.60;;;;;;4956026;28;20429;-66
2023/04/04 08:06:52;;;;;;;2.00;1.90;;;13.30;61.10;;;;;;4956099;28;20177;-67
2023/04/04 08:09:17;;;;;;;2.30;2.10;;;13.70;59.40;;;;;;4956192;28;20181;-65
2023/04/04 08:11:43;;;;;;;3.50;1.87;;;14.10;58.90;;;;;;4956157;28;20180;-63
2023/04/04 08:14:11;;;;;;;2.30;2.10;;;14.50;58.60;;;;;;4955546;28;20684;-66
2023/04/04 08:16:38;;;;;;;2.10;1.90;;;14.80;57.20;;;;;;4956056;28;20209;-64
2023/04/04 08:19:03;;;;;;;2.27;2.07;;;15.10;56.70;;;;;;4956264;28;20732;-66
2023/04/04 08:21:29;;;;;;;2.70;2.30;;;15.40;55.40;;;;;;4955867;28;20486;-65
2023/04/04 08:23:55;;;;;;;3.17;1.83;;;15.60;55.00;;;;;;4955479;28;20186;-65
2023/04/04 08:26:21;;;;;;;2.60;2.40;;;15.50;53.90;;;;;;4955934;28;20173;-65
2023/04/04 08:28:47;;;;;;;2.33;1.73;;;15.10;53.90;;;;;;4955778;28;20251;-64
2023/04/04 08:31:13;;;;;;;2.40;2.20;;;14.90;54.20;;;;;;4955859;28;20531;-65
2023/04/04 08:33:38;;;;;;;2.20;1.83;;;14.60;53.40;;;;;;4955543;28;20467;-63
2023/04/04 08:36:04;;;;;;;2.70;2.50;;;14.30;54.00;;;;;;4955550;28;20551;-66
2023/04/04 08:38:30;;;;;;;3.57;1.80;;;14.30;54.30;;;;;;4955544;28;20173;-64
2023/04/04 08:40:55;;;;;;;2.30;2.10;;;14.40;54.50;;;;;;4955654;28;20172;-66
2023/04/04 08:43:23;;;;;;;2.47;2.27;;;14.70;54.20;;;;;;4955348;28;20184;-66
2023/04/04 08:45:52;;;;;;;2.27;2.17;;;14.90;53.50;;;;;;4955431;28;20525;-66
2023/04/04 08:48:20;;;;;;;2.03;1.90;;;15.00;53.30;;;;;;4955341;28;20444;-64
2023/04/04 08:50:46;;;;;;;2.63;2.20;;;15.10;53.20;;;;;;4955593;28;20467;-64
2023/04/04 08:53:13;;;;;;;3.00;2.23;;;15.30;52.60;;;;;;4955084;28;20413;-64
2023/04/04 08:55:38;;;;;;;2.00;1.90;;;15.80;52.70;;;;;;4955052;28;20207;-64
2023/04/04 08:58:04;;;;;;;2.40;2.20;;;16.00;51.90;;;;;;4955531;28;20721;-64
2023/04/04 09:00:31;;;;;;;2.33;2.23;;;16.20;51.00;;;;;;4955282;28;20182;-64
2023/04/04 09:03:33;;;;;;;1.93;1.83;;;16.10;50.90;;;;;;4955815;28;20646;-65
2023/04/04 09:06:00;;;;;;;1.80;1.70;;;15.70;51.10;;;;;;4953520;28;20433;-66
2023/04/04 09:08:25;;;;;;;2.30;2.10;;;16.10;51.70;;;;;;4955356;28;20404;-63
2023/04/04 09:10:52;;;;;;;2.63;2.30;;;16.40;51.00;;;;;;4955383;28;20470;-64
2023/04/04 09:13:18;;;;;;;2.43;2.30;;;16.80;49.70;;;;;;4955000;28;20201;-64
2023/04/04 09:15:49;;;;;;;4.80;2.70;;;16.80;49.90;;;;;;4954999;28;21011;-63
2023/04/04 09:18:16;;;;;;;2.80;2.20;;;16.90;49.70;;;;;;4955167;28;20391;-65
2023/04/04 09:20:44;;;;;;;1.80;1.70;;;17.20;49.90;;;;;;4955151;28;20786;-65
2023/04/04 09:23:12;;;;;;;2.63;2.43;;;17.80;48.80;;;;;;4954919;28;20409;-64
2023/04/04 09:25:51;;;;;;;2.60;2.40;;;18.50;48.20;;;;;;4955224;28;20781;-66
2023/04/04 09:28:17;;;;;;;2.30;2.17;;;18.60;47.50;;;;;;4955142;28;20417;-64
2023/04/04 09:30:47;;;;;;;1.83;1.73;;;18.50;47.00;;;;;;4955245;28;20380;-67
2023/04/04 09:33:14;;;;;;;1.90;1.77;;;18.80;47.90;;;;;;4954825;28;20396;-64
2023/04/04 09:35:45;;;;;;;2.23;2.13;;;19.20;46.40;;;;;;4954993;28;20437;-65
2023/04/04 09:38:10;;;;;;;4.23;2.17;;;18.90;46.00;;;;;;4955199;28;20436;-64
2023/04/04 09:40:36;;;;;;;2.40;2.20;;;18.50;46.10;;;;;;4954993;28;20810;-66
2023/04/04 09:43:06;;;;;;;2.40;2.20;;;18.20;46.70;;;;;;4954745;28;20169;-64
2023/04/04 09:45:34;;;;;;;2.10;2.00;;;18.00;47.20;;;;;;4954762;28;20839;-64
2023/04/04 09:48:01;;;;;;;2.00;1.90;;;18.00;46.80;;;;;;4955000;28;20388;-65
2023/04/04 09:50:32;;;;;;;3.67;3.43;;;18.20;47.00;;;;;;4955063;28;20416;-63
2023/04/04 09:52:59;;;;;;;2.33;1.97;;;18.20;46.90;;;;;;4954832;28;20491;-66
2023/04/04 09:55:33;;;;;;;1.97;1.87;;;18.20;46.50;;;;;;4954833;28;20482;-63
2023/04/04 09:58:01;;;;;;;2.23;2.13;;;17.90;45.60;;;;;;4954915;28;20397;-66
2023/04/04 10:00:29;;;;;;;2.30;2.20;;;17.60;45.80;;;;;;4954935;28;20413;-64
2023/04/04 10:02:57;;;;;;;2.20;2.03;;;17.40;46.60;;;;;;4954709;28;20813;-64
2023/04/04 10:05:23;;;;;;;2.30;2.20;;;17.00;46.00;;;;;;4954633;28;20415;-62
2023/04/04 10:07:49;;;;;;;3.20;3.00;;;16.20;46.20;;;;;;4954864;28;20409;-65
2023/04/04 10:10:15;;;;;;;2.40;2.20;;;15.00;46.70;;;;;;4954852;28;20413;-62
2023/04/04 10:12:44;;;;;;;2.20;2.10;;;14.30;48.00;;;;;;4954818;28;20173;-67
2023/04/04 10:15:10;;;;;;;2.07;1.97;;;14.10;48.20;;;;;;4954170;28;20240;-61
2023/04/04 10:17:37;;;;;;;2.27;2.10;;;13.90;49.50;;;;;;4954581;28;20412;-64
2023/04/04 10:20:10;;;;;;;2.20;2.10;;;14.30;49.30;;;;;;4958102;28;20404;-64
2023/04/04 10:22:37;;;;;;;2.00;1.90;;;14.90;49.90;;;;;;4957985;28;20432;-64
2023/04/04 10:25:04;;;;;;;2.07;1.97;;;15.40;49.20;;;;;;4957622;28;20436;-64
2023/04/04 10:27:31;;;;;;;2.40;2.30;;;15.50;48.10;;;;;;4956810;29;20386;-65
2023/04/04 10:29:56;;;;;;;2.80;2.60;;;15.40;48.20;;;;;;4958082;28;20387;-67
2023/04/04 10:32:39;;;;;;;2.33;2.23;;;15.40;47.80;;;;;;4957864;28;20778;-65
2023/04/04 10:35:09;;;;;;;3.07;2.87;;;15.70;47.80;;;;;;4957505;28;20256;-65
2023/04/04 10:37:58;;;;;;;2.30;2.20;;;15.40;47.50;;;;;;4957822;28;20745;-65
2023/04/04 10:40:32;;;;;;;4.93;2.17;;;14.60;48.10;;;;;;4957339;29;20503;-62
2023/04/04 10:43:02;;;;;;;2.90;2.70;;;14.50;48.20;;;;;;4957569;28;20407;-65
2023/04/04 10:45:29;;;;;;;3.70;2.40;;;14.40;48.20;;;;;;4957728;28;20457;-64
2023/04/04 10:47:56;;;;;;;2.17;2.07;;;14.50;48.60;;;;;;4957397;28;20424;-65
2023/04/04 10:50:21;;;;;;;2.13;1.97;;;14.80;48.60;;;;;;4957638;28;20938;-63
2023/04/04 10:52:48;;;;;;;1.97;1.87;;;14.90;48.40;;;;;;4957369;28;20483;-66
2023/04/04 10:55:15;;;;;;;2.30;2.10;;;14.90;48.00;;;;;;4957364;28;20197;-63
2023/04/04 10:57:51;;;;;;;3.10;1.83;;;14.60;47.90;;;;;;4957477;28;20507;-66
2023/04/04 11:00:19;;;;;;;2.20;2.00;;;14.20;47.20;;;;;;4957604;28;20420;-63
2023/04/04 11:02:55;;;;;;;2.70;2.13;;;13.80;47.70;;;;;;4957445;28;20415;-64
2023/04/04 11:06:00;;;;;;;2.63;2.43;;;13.30;48.80;;;;;;4957222;28;20468;-63
2023/04/04 11:08:25;;;;;;;2.77;2.57;;;13.20;48.70;;;;;;4956088;29;20405;-63
2023/04/04 11:10:52;;;;;;;2.63;2.43;;;12.70;48.90;;;;;;4957347;28;20741;-64
2023/04/04 11:13:21;;;;;;;5.20;3.60;;;12.50;49.70;;;;;;4956516;28;20453;-62
2023/04/04 11:16:00;;;;;;;2.60;2.40;;;11.90;48.80;;;;;;4955958;28;20485;-68
2023/04/04 11:18:41;;;;;;;4.13;2.57;;;11.00;49.30;;;;;;4946593;28;20425;-67
2023/04/04 11:21:13;;;;;;;2.40;2.20;;;10.20;51.90;;;;;;4956825;28;20417;-63
2023/04/04 11:23:47;;;;;;;2.17;2.05;;;9.80;52.60;;;;;;4956553;28;20413;-63
2023/04/04 11:26:26;;;;;;;1.98;1.88;;;9.30;53.40;;;;;;4956460;28;20267;-64
2023/04/04 11:28:55;;;;;;;2.60;1.92;;;9.00;54.40;;;;;;4955706;28;20192;-62
2023/04/04 11:31:37;;;;;;;1.83;1.73;;;8.80;54.70;;;;;;4955764;28;20210;-67
2023/04/04 11:34:14;;;;;;;2.33;2.13;;;8.70;55.30;;;;;;4951612;28;20201;-66
2023/04/04 11:36:41;;;;;;;3.17;2.13;;;8.60;54.10;;;;;;4955106;29;20220;-67
2023/04/04 11:39:09;;;;;;;1.70;1.60;;;8.40;54.40;;;;;;4956802;28;20176;-67
2023/04/04 11:41:56;;;;;;;3.20;2.00;;;8.30;54.80;;;;;;4956783;28;20187;-67
2023/04/04 11:44:29;;;;;;;2.25;1.30;;;8.10;55.10;;;;;;4955732;28;20282;-66
2023/04/04 11:47:04;;;;;;;1.98;1.83;;;7.90;55.30;;;;;;4955871;28;20187;-66
2023/04/04 11:49:34;;;;;;;2.25;2.13;;;7.80;56.50;;;;;;4956410;28;20179;-67
2023/04/04 11:52:07;;;;;;;2.33;2.22;;;7.80;56.60;;;;;;4956004;28;20566;-66
2023/04/04 11:54:34;;;;;;;1.48;1.48;;;7.90;56.90;;;;;;4955979;28;20208;-67
2023/04/04 11:57:00;;;;;;;2.20;2.00;;;8.00;57.00;;;;;;4955544;28;20538;-66
2023/04/04 11:59:26;;;;;;;2.35;1.60;;;8.10;56.60;;;;;;4956199;28;20169;-67
2023/04/04 12:01:53;;;;;;;2.42;1.73;;;8.10;57.20;;;;;;4956155;28;20196;-67
2023/04/04 12:04:20;;;;;;;2.28;2.10;;;8.20;57.00;;;;;;4955263;28;20195;-68
2023/04/04 12:06:51;;;;;;;2.92;1.83;;;8.30;58.20;;;;;;4956217;28;20188;-66
2023/04/04 12:09:19;;;;;;;1.85;1.75;;;8.30;56.50;;;;;;4954876;28;20316;-67
2023/04/04 12:11:48;;;;;;;5.15;2.40;;;8.30;56.70;;;;;;4955779;28;20177;-67
2023/04/04 12:14:24;;;;;;;1.85;1.75;;;8.40;57.20;;;;;;4955519;28;20201;-69
2023/04/04 12:16:52;;;;;;;2.08;1.85;;;8.50;57.30;;;;;;4935306;29;20209;-65
2023/04/04 12:19:18;;;;;;;2.83;2.63;;;8.70;56.90;;;;;;4936888;29;20185;-67
2023/04/04 12:21:45;;;;;;;2.10;2.00;;;8.70;56.50;;;;;;4936642;29;20658;-68
2023/04/04 12:24:11;;;;;;;1.65;1.60;;;8.70;56.50;;;;;;4936163;29;20457;-68
2023/04/04 12:26:39;;;;;;;2.40;2.20;;;8.90;56.70;;;;;;4941970;29;20180;-67
2023/04/04 12:29:06;;;;;;;2.55;2.35;;;8.90;57.80;;;;;;4955473;28;20169;-68
2023/04/04 12:31:33;;;;;;;1.88;1.77;;;8.90;57.80;;;;;;4953767;28;20187;-69
2023/04/04 12:33:59;;;;;;;2.33;1.88;;;8.80;57.60;;;;;;4954939;28;20297;-70
2023/04/04 12:36:25;;;;;;;3.45;2.20;;;8.80;57.70;;;;;;4953473;29;20674;-68
2023/04/04 12:38:57;;;;;;;1.67;1.58;;;9.00;58.40;;;;;;4955517;28;20173;-69
2023/04/04 12:41:23;;;;;;;2.85;2.25;;;9.10;58.40;;;;;;4946310;28;20174;-67
2023/04/04 12:43:48;;;;;;;1.77;1.67;;;9.20;58.40;;;;;;4944642;28;20175;-66
2023/04/04 12:46:15;;;;;;;1.87;1.50;;;9.20;58.40;;;;;;4955243;28;20635;-66
2023/04/04 12:48:40;;;;;;;2.10;2.00;;;9.30;59.20;;;;;;4955681;28;20187;-69
2023/04/04 12:51:07;;;;;;;1.80;1.70;;;9.40;57.60;;;;;;4955463;28;20248;-66
2023/04/04 12:53:34;;;;;;;2.00;1.90;;;9.30;57.30;;;;;;4954409;28;20181;-64
2023/04/04 12:56:03;;;;;;;1.83;1.73;;;9.20;58.80;;;;;;4955317;28;20205;-66
2023/04/04 12:58:29;;;;;;;1.95;1.85;;;9.20;58.40;;;;;;4945191;29;20260;-65
2023/04/04 13:00:58;;;;;;;1.95;1.85;;;9.20;59.10;;;;;;4955378;28;20179;-64
2023/04/04 13:03:26;;;;;;;1.85;1.75;;;9.30;57.90;;;;;;4954775;28;20283;-63
2023/04/04 13:05:51;;;;;;;1.85;1.75;;;9.30;57.20;;;;;;4954684;28;20263;-63
2023/04/04 13:08:18;;;;;;;2.00;1.87;;;9.10;56.40;;;;;;4955700;28;20181;-63
2023/04/04 13:11:04;;;;;;;1.73;1.60;;;8.80;56.80;;;;;;4955304;28;20202;-67
2023/04/04 13:13:40;;;;;;;4.05;1.58;;;8.70;57.20;;;;;;4954475;28;20753;-70
2023/04/04 13:16:07;;;;;;;2.08;1.88;;;8.60;58.00;;;;;;4954343;28;20208;-69
2023/04/04 13:18:41;;;;;;;1.85;1.75;;;8.60;57.50;;;;;;4955046;28;20165;-67
2023/04/04 13:21:06;;;;;;;2.15;2.03;;;8.60;57.30;;;;;;4954918;28;20256;-69
2023/04/04 13:23:33;;;;;;;3.03;2.53;;;8.60;57.60;;;;;;4954465;28;20646;-68
2023/04/04 13:25:59;;;;;;;1.70;1.60;;;8.70;57.90;;;;;;4955060;28;20200;-69
2023/04/04 13:28:26;;;;;;;2.57;2.37;;;8.70;57.80;;;;;;4954571;28;20187;-68
2023/04/04 13:30:52;;;;;;;1.75;1.65;;;8.80;58.00;;;;;;4954935;28;20181;-69
2023/04/04 13:33:18;;;;;;;2.88;2.63;;;8.80;58.60;;;;;;4953260;28;20239;-72
2023/04/04 13:35:45;;;;;;;2.53;2.43;;;8.80;58.30;;;;;;4954562;28;20200;-68
2023/04/04 13:38:11;;;;;;;2.10;2.00;;;8.80;57.90;;;;;;4955000;28;20173;-70
2023/04/04 13:40:37;;;;;;;2.08;1.75;;;8.70;57.70;;;;;;4954003;28;20173;-68
2023/04/04 13:43:03;;;;;;;1.83;1.73;;;8.70;57.50;;;;;;4953465;28;20572;-75
2023/04/04 13:45:32;;;;;;;2.80;2.67;;;8.60;58.10;;;;;;4953959;29;20810;-75
2023/04/04 13:47:57;;;;;;;1.80;1.70;;;8.50;58.30;;;;;;4953903;28;20223;-71
2023/04/04 13:50:23;;;;;;;2.03;1.80;;;8.60;58.80;;;;;;4934489;29;20177;-68
2023/04/04 13:52:51;;;;;;;2.60;2.43;;;8.60;58.10;;;;;;4935711;29;20185;-73
2023/04/04 13:55:17;;;;;;;3.95;2.85;;;8.70;58.40;;;;;;4953694;28;20536;-69
2023/04/04 13:57:43;;;;;;;2.47;1.70;;;8.70;58.30;;;;;;4957541;28;20195;-68
2023/04/04 14:00:09;;;;;;;2.33;2.20;;;8.80;58.20;;;;;;4958248;28;20169;-68
2023/04/04 14:02:35;;;;;;;4.28;2.65;;;8.80;58.20;;;;;;4958596;28;20169;-67
2023/04/04 14:05:00;;;;;;;6.03;2.50;;;8.90;57.70;;;;;;4940863;28;20209;-69
2023/04/04 14:07:26;;;;;;;1.90;1.80;;;8.90;57.70;;;;;;4939545;29;20836;-66
2023/04/04 14:09:51;;;;;;;2.17;2.07;;;8.90;58.00;;;;;;4958015;28;20590;-69
2023/04/04 14:12:17;;;;;;;2.87;2.50;;;8.90;57.70;;;;;;4957913;28;20645;-68
2023/04/04 14:14:42;;;;;;;1.80;1.70;;;8.90;57.70;;;;;;4957325;28;20216;-68
2023/04/04 14:17:08;;;;;;;2.30;2.10;;;8.90;58.30;;;;;;4958074;28;20221;-69
2023/04/04 14:19:34;;;;;;;1.90;1.80;;;9.00;58.60;;;;;;4957911;28;20202;-68
2023/04/04 14:21:59;;;;;;;2.10;2.00;;;9.00;58.60;;;;;;4958265;28;20183;-67
2023/04/04 14:24:25;;;;;;;1.80;1.70;;;9.00;57.80;;;;;;4957071;28;20224;-68
2023/04/04 14:26:51;;;;;;;2.33;2.20;;;9.00;57.50;;;;;;4958167;28;20681;-70
2023/04/04 14:29:16;;;;;;;2.20;2.00;;;9.00;57.50;;;;;;4957557;28;20431;-69
2023/04/04 14:31:42;;;;;;;1.80;1.70;;;8.80;57.50;;;;;;4957796;28;20187;-69
2023/04/04 14:34:07;;;;;;;2.07;1.87;;;8.80;58.50;;;;;;4957024;28;20741;-68
2023/04/04 14:36:33;;;;;;;3.53;2.53;;;8.80;58.70;;;;;;4957367;28;20231;-69
2023/04/04 14:38:59;;;;;;;1.97;1.87;;;8.90;58.10;;;;;;4957895;28;20252;-69
2023/04/04 14:41:25;;;;;;;2.30;1.70;;;8.90;57.50;;;;;;4957583;28;20448;-68
2023/04/04 14:43:50;;;;;;;2.67;2.50;;;8.80;58.00;;;;;;4957061;28;20180;-67
2023/04/04 14:46:18;;;;;;;2.10;2.00;;;8.80;58.30;;;;;;4958002;28;20172;-67
2023/04/04 14:48:44;;;;;;;2.22;2.13;;;8.80;58.10;;;;;;4957247;28;20432;-68
2023/04/04 14:51:09;;;;;;;1.90;1.80;;;8.80;57.70;;;;;;4957437;28;20185;-69
2023/04/04 14:53:35;;;;;;;2.30;2.20;;;8.70;57.90;;;;;;4956949;28;20171;-68
2023/04/04 14:56:01;;;;;;;2.20;2.10;;;8.70;58.40;;;;;;4956639;28;20224;-68
2023/04/04 14:58:26;;;;;;;2.60;2.40;;;8.70;58.70;;;;;;4957279;28;20511;-68
2023/04/04 15:00:52;;;;;;;2.30;2.20;;;8.70;58.90;;;;;;4957158;28;20173;-68
2023/04/04 15:03:17;;;;;;;6.63;3.00;;;8.70;58.90;;;;;;4955979;28;20177;-67
2023/04/04 15:05:43;;;;;;;1.90;1.80;;;8.70;59.00;;;;;;4956306;28;20263;-68
2023/04/04 15:08:09;;;;;;;1.70;1.60;;;8.70;58.10;;;;;;4957356;28;20552;-68
2023/04/04 15:10:34;;;;;;;2.10;2.00;;;8.70;58.20;;;;;;4956805;28;20212;-68
2023/04/04 15:13:00;;;;;;;2.70;2.33;;;8.70;58.50;;;;;;4956544;28;20191;-69
2023/04/04 15:15:27;;;;;;;2.13;1.97;;;8.70;58.80;;;;;;4956540;28;20204;-67
2023/04/04 15:17:53;;;;;;;2.72;2.53;;;8.70;59.10;;;;;;4956815;28;20180;-69
2023/04/04 15:20:19;;;;;;;2.87;2.67;;;8.70;59.20;;;;;;4956683;28;20195;-69
2023/04/04 15:22:44;;;;;;;2.70;2.20;;;8.70;59.30;;;;;;4956870;28;20535;-69
2023/04/04 15:25:10;;;;;;;2.20;2.00;;;8.70;59.50;;;;;;4955932;28;20225;-69
2023/04/04 15:27:36;;;;;;;2.57;2.37;;;8.80;59.40;;;;;;4956738;28;20217;-69
2023/04/04 15:30:01;;;;;;;2.80;2.60;;;8.80;59.40;;;;;;4956795;28;20179;-69
2023/04/04 15:32:27;;;;;;;2.40;2.10;;;8.90;60.00;;;;;;4956250;28;20202;-69
2023/04/04 15:34:54;;;;;;;2.13;2.03;;;8.90;59.70;;;;;;4955597;28;20208;-70
2023/04/04 15:37:20;;;;;;;2.40;2.30;;;8.80;60.30;;;;;;4956954;28;20169;-67
2023/04/04 15:39:47;;;;;;;2.13;2.03;;;8.90;60.30;;;;;;4956271;28;20187;-68
2023/04/04 15:42:13;;;;;;;2.60;2.50;;;8.90;60.00;;;;;;4956435;28;20228;-68
2023/04/04 15:44:38;;;;;;;3.57;3.10;;;8.90;60.10;;;;;;4955778;28;20232;-69
2023/04/04 15:47:05;;;;;;;1.70;1.60;;;8.90;60.60;;;;;;4955901;29;20177;-70
2023/04/04 15:49:31;;;;;;;3.03;2.20;;;8.80;60.60;;;;;;4956356;28;20226;-68
2023/04/04 15:51:57;;;;;;;2.72;2.20;;;8.70;60.50;;;;;;4955720;28;20185;-68
2023/04/04 15:54:23;;;;;;;3.70;2.28;;;8.70;62.10;;;;;;4953859;28;20196;-69
2023/04/04 15:56:49;;;;;;;3.72;2.33;;;8.60;60.30;;;;;;4955911;29;20543;-67
2023/04/04 15:59:15;;;;;;;2.70;2.20;;;8.60;60.80;;;;;;4956284;28;20168;-66
2023/04/04 16:01:41;;;;;;;1.90;1.80;;;8.60;61.60;;;;;;4954275;28;20424;-69
2023/04/04 16:04:08;;;;;;;2.43;2.23;;;8.50;62.00;;;;;;4953769;29;20196;-69
2023/04/04 16:06:34;;;;;;;2.40;2.20;;;8.50;62.70;;;;;;4954285;28;20197;-66
2023/04/04 16:09:00;;;;;;;2.87;2.67;;;8.40;62.70;;;;;;4955977;28;20181;-65
2023/04/04 16:11:25;;;;;;;1.93;1.80;;;8.40;62.70;;;;;;4953762;28;20491;-69
2023/04/04 16:13:51;;;;;;;2.90;2.80;;;8.40;63.00;;;;;;4953166;29;20232;-70
2023/04/04 16:16:17;;;;;;;2.30;2.20;;;8.30;63.70;;;;;;4953430;28;20219;-65
2023/04/04 16:18:42;;;;;;;2.90;2.67;;;8.30;63.20;;;;;;4955913;28;20183;-65
2023/04/04 16:21:08;;;;;;;1.90;1.80;;;8.30;62.70;;;;;;4947248;28;20210;-68
2023/04/04 16:23:34;;;;;;;2.67;2.47;;;8.30;62.00;;;;;;4953995;28;20181;-67
2023/04/04 16:25:59;;;;;;;2.80;2.60;;;8.20;61.70;;;;;;4954859;28;20231;-67
2023/04/04 16:28:25;;;;;;;2.73;2.30;;;8.20;62.70;;;;;;4955587;28;20623;-65
2023/04/04 16:30:51;;;;;;;2.03;1.93;;;8.10;62.60;;;;;;4955652;28;20180;-67
2023/04/04 16:33:17;;;;;;;3.97;3.07;;;8.10;62.90;;;;;;4953742;28;20475;-68
2023/04/04 16:35:43;;;;;;;2.43;2.23;;;8.00;63.00;;;;;;4955475;28;20454;-67
2023/04/04 16:38:09;;;;;;;2.47;2.27;;;8.00;62.50;;;;;;4954783;28;20503;-66
2023/04/04 16:40:35;;;;;;;2.55;2.35;;;8.00;63.00;;;;;;4955232;28;20191;-67
2023/04/04 16:43:01;;;;;;;1.57;1.47;;;7.90;62.30;;;;;;4955125;28;20177;-68
2023/04/04 16:45:26;;;;;;;1.57;1.57;;;7.80;63.00;;;;;;4954611;28;20607;-66
2023/04/04 16:47:52;;;;;;;3.13;1.73;;;7.80;63.40;;;;;;4955501;28;20663;-66
2023/04/04 16:50:18;;;;;;;2.30;2.10;;;7.80;63.10;;;;;;4954042;29;20226;-68
2023/04/04 16:52:43;;;;;;;2.70;2.50;;;7.80;63.10;;;;;;4955338;28;20259;-65
2023/04/04 16:55:09;;;;;;;2.20;2.00;;;7.80;62.40;;;;;;4954576;28;20666;-66
2023/04/04 16:57:34;;;;;;;2.70;2.50;;;7.80;62.20;;;;;;4955209;29;20571;-67